< < Back
Terminal Aerodrome Forecast


Current Version              Previous Versions:   1  2  3  4  5  6  7  8  9  

Terminal Aerodrome Forecast

448
FTUS42 KFFC 292300
TAFFTY
TAF
KFTY 292323Z 3000/3024 31009KT P6SM FEW030 SCT120
     FM300400 32004KT P6SM FEW120
     FM301400 35008KT P6SM SKC=



Latest METAR

959
SAUS70 KWBC 301800 RRA
MTRFTY
METAR KFTY 301753Z VRB05KT 10SM CLR 19/04 A3004 RMK AO2 SLP167 T01890044
10189 20050 58021


USA.gov is the U.S. government's official web portal to all federal, state and local government web resources and services.